アイウン の空港の天気 - METARとTAF

アイウン/ハッサン空港 ( GMML / EUN ) - 西サハラ アイウン
飛行場実況気象(Metar)
観測時間06/24 10:00 CET (06/24 09:00 UTC)
風向・風速北東 4m/s
視程8000m
天気現象
全天の8割程度の雲 雲底高度 610m
気温22℃
湿度73%
気圧1017hPa
METARGMML 240900Z 04008KT 8000 BKN020 22/17 Q1017 NOSIG
過去の天気等 Google飛行場航空写真 Wunderground天気予報

過去48時間のMETAR

飛行場予報(TAF)
発表時間: 6/24 06:00 CET (6/24 05:00 UTC)
予報対象時間: 24日7時 CET ~ 25日13時 CET
風向・風速東北東 5m/s
視程10km以上
なし
TAF GMML 240500Z 2406/2512 06009KT CAVOK